sensor_id;sensor_type;location;lat;lon;timestamp;pressure;altitude;pressure_sealevel;temperature;humidity
15662;BME280;7931;52.274;10.470;2022-09-28T12:20:41;98665.78;;;14.69;nan
15662;BME280;7931;52.274;10.470;2022-09-28T12:23:13;98661.34;;;13.17;nan
15662;BME280;7931;52.274;10.470;2022-09-28T12:25:43;98662.41;;;11.88;nan
15662;BME280;7931;52.274;10.470;2022-09-28T12:28:38;98667.31;;;11.18;nan
15662;BME280;7931;52.274;10.470;2022-09-28T12:31:30;98668.34;;;10.74;nan
15662;BME280;7931;52.274;10.470;2022-09-28T12:33:58;98676.91;;;10.26;nan
15662;BME280;7931;52.274;10.470;2022-09-28T12:42:38;98682.53;;;9.43;nan
15662;BME280;7931;52.274;10.470;2022-09-28T12:48:08;98683.34;;;9.26;nan
15662;BME280;7931;52.274;10.470;2022-09-28T12:51:21;98688.66;;;9.26;nan
15662;BME280;7931;52.274;10.470;2022-09-28T12:54:05;98676.66;;;9.22;nan
15662;BME280;7931;52.274;10.470;2022-09-28T12:59:35;98685.47;;;9.40;nan
15662;BME280;7931;52.274;10.470;2022-09-28T13:02:22;98692.69;;;9.48;nan
15662;BME280;7931;52.274;10.470;2022-09-28T13:05:11;98694.91;;;9.52;nan
15662;BME280;7931;52.274;10.470;2022-09-28T13:08:08;98701.19;;;9.69;nan
15662;BME280;7931;52.274;10.470;2022-09-28T13:10:40;98695.41;;;9.92;nan
15662;BME280;7931;52.274;10.470;2022-09-28T13:15:51;98698.75;;;10.20;nan
15662;BME280;7931;52.274;10.470;2022-09-28T13:18:26;98700.84;;;10.34;nan
15662;BME280;7931;52.274;10.470;2022-09-28T13:21:03;98698.97;;;10.52;nan
15662;BME280;7931;52.274;10.470;2022-09-28T13:23:41;98700.22;;;10.66;nan
15662;BME280;7931;52.274;10.470;2022-09-28T13:26:29;98698.53;;;10.99;nan
15662;BME280;7931;52.274;10.470;2022-09-28T13:29:00;98698.63;;;11.24;nan
15662;BME280;7931;52.274;10.470;2022-09-28T13:31:30;98695.31;;;11.38;nan
15662;BME280;7931;52.274;10.470;2022-09-28T13:33:58;98697.66;;;11.49;nan
15662;BME280;7931;52.274;10.470;2022-09-28T13:38:55;98707.81;;;11.46;nan
15662;BME280;7931;52.274;10.470;2022-09-28T13:41:38;98714.16;;;11.53;nan
15662;BME280;7931;52.274;10.470;2022-09-28T13:46:54;98707.25;;;11.85;nan
15662;BME280;7931;52.274;10.470;2022-09-28T13:52:11;98718.50;;;11.62;nan
15662;BME280;7931;52.274;10.470;2022-09-28T13:55:02;98729.44;;;11.35;nan
15662;BME280;7931;52.274;10.470;2022-09-28T14:00:58;98726.59;;;11.28;nan
15662;BME280;7931;52.274;10.470;2022-09-28T14:03:27;98722.94;;;11.29;nan
15662;BME280;7931;52.274;10.470;2022-09-28T14:06:09;98735.22;;;11.22;nan
15662;BME280;7931;52.274;10.470;2022-09-28T14:16:33;98736.44;;;11.44;nan
15662;BME280;7931;52.274;10.470;2022-09-28T14:19:09;98740.09;;;11.35;nan
15662;BME280;7931;52.274;10.470;2022-09-28T14:21:49;98737.91;;;11.30;nan
15662;BME280;7931;52.274;10.470;2022-09-28T14:24:33;98741.22;;;11.24;nan
15662;BME280;7931;52.274;10.470;2022-09-28T14:27:12;98736.22;;;11.21;nan
15662;BME280;7931;52.274;10.470;2022-09-28T14:29:44;98743.56;;;11.27;nan
15662;BME280;7931;52.274;10.470;2022-09-28T14:34:40;98751.91;;;11.32;nan
15662;BME280;7931;52.274;10.470;2022-09-28T14:37:35;98744.53;;;11.26;nan
15662;BME280;7931;52.274;10.470;2022-09-28T14:40:26;98744.81;;;11.06;nan
15662;BME280;7931;52.274;10.470;2022-09-28T14:43:25;98748.59;;;10.96;nan
15662;BME280;7931;52.274;10.470;2022-09-28T14:49:00;98746.59;;;11.32;nan
15662;BME280;7931;52.274;10.470;2022-09-28T14:54:02;98757.75;;;11.44;nan
15662;BME280;7931;52.274;10.470;2022-09-28T14:56:44;98753.91;;;11.38;nan
15662;BME280;7931;52.274;10.470;2022-09-28T14:59:17;98756.63;;;11.46;nan
15662;BME280;7931;52.274;10.470;2022-09-28T15:02:22;98752.59;;;11.42;nan
15662;BME280;7931;52.274;10.470;2022-09-28T15:04:53;98762.09;;;11.37;nan
15662;BME280;7931;52.274;10.470;2022-09-28T15:07:22;98757.72;;;11.27;nan
15662;BME280;7931;52.274;10.470;2022-09-28T15:09:52;98762.09;;;11.37;nan
15662;BME280;7931;52.274;10.470;2022-09-28T15:12:22;98765.56;;;11.37;nan
15662;BME280;7931;52.274;10.470;2022-09-28T15:14:54;98764.19;;;11.25;nan
15662;BME280;7931;52.274;10.470;2022-09-28T15:17:27;98761.25;;;10.94;nan
15662;BME280;7931;52.274;10.470;2022-09-28T15:20:28;98765.72;;;10.93;nan
15662;BME280;7931;52.274;10.470;2022-09-28T15:22:56;98762.06;;;10.94;nan
15662;BME280;7931;52.274;10.470;2022-09-28T15:25:31;98771.06;;;10.93;nan
15662;BME280;7931;52.274;10.470;2022-09-28T15:28:15;98764.91;;;10.93;nan
15662;BME280;7931;52.274;10.470;2022-09-28T15:30:41;98767.03;;;10.89;nan
15662;BME280;7931;52.274;10.470;2022-09-28T15:33:25;98764.31;;;10.81;nan
15662;BME280;7931;52.274;10.470;2022-09-28T15:36:15;98776.06;;;10.70;nan
15662;BME280;7931;52.274;10.470;2022-09-28T15:38:50;98773.34;;;10.36;nan
15662;BME280;7931;52.274;10.470;2022-09-28T15:41:17;98771.78;;;10.25;nan
15662;BME280;7931;52.274;10.470;2022-09-28T15:43:42;98771.84;;;10.16;nan
15662;BME280;7931;52.274;10.470;2022-09-28T15:46:17;98772.59;;;10.08;nan
15662;BME280;7931;52.274;10.470;2022-09-28T15:48:52;98775.41;;;10.07;nan
15662;BME280;7931;52.274;10.470;2022-09-28T15:51:19;98778.44;;;10.12;nan
15662;BME280;7931;52.274;10.470;2022-09-28T15:53:53;98784.59;;;10.12;nan
15662;BME280;7931;52.274;10.470;2022-09-28T15:56:22;98789.66;;;10.05;nan
15662;BME280;7931;52.274;10.470;2022-09-28T16:01:40;98787.53;;;10.09;nan
15662;BME280;7931;52.274;10.470;2022-09-28T16:04:32;98794.09;;;9.97;nan
15662;BME280;7931;52.274;10.470;2022-09-28T16:09:54;98794.19;;;9.87;nan
15662;BME280;7931;52.274;10.470;2022-09-28T16:12:20;98798.78;;;9.85;nan
15662;BME280;7931;52.274;10.470;2022-09-28T16:14:54;98805.38;;;9.81;nan
15662;BME280;7931;52.274;10.470;2022-09-28T16:17:29;98801.78;;;9.82;nan
15662;BME280;7931;52.274;10.470;2022-09-28T16:20:18;98806.38;;;9.80;nan
15662;BME280;7931;52.274;10.470;2022-09-28T16:22:45;98810.03;;;9.79;nan
15662;BME280;7931;52.274;10.470;2022-09-28T16:25:18;98809.56;;;9.84;nan
15662;BME280;7931;52.274;10.470;2022-09-28T16:27:47;98811.03;;;9.78;nan
15662;BME280;7931;52.274;10.470;2022-09-28T16:30:22;98814.06;;;9.83;nan
15662;BME280;7931;52.274;10.470;2022-09-28T16:33:01;98821.03;;;9.84;nan
15662;BME280;7931;52.274;10.470;2022-09-28T16:35:33;98822.09;;;9.73;nan
15662;BME280;7931;52.274;10.470;2022-09-28T16:38:14;98819.78;;;9.61;nan
15662;BME280;7931;52.274;10.470;2022-09-28T16:40:42;98825.81;;;9.63;nan
15662;BME280;7931;52.274;10.470;2022-09-28T16:43:16;98825.69;;;9.55;nan
15662;BME280;7931;52.274;10.470;2022-09-28T16:45:43;98831.63;;;9.48;nan
15662;BME280;7931;52.274;10.470;2022-09-28T16:48:13;98836.91;;;9.48;nan
15662;BME280;7931;52.274;10.470;2022-09-28T16:50:40;98835.38;;;9.46;nan
15662;BME280;7931;52.274;10.470;2022-09-28T16:53:12;98833.44;;;9.48;nan
15662;BME280;7931;52.274;10.470;2022-09-28T16:55:57;98834.28;;;9.48;nan
15662;BME280;7931;52.274;10.470;2022-09-28T16:58:22;98834.41;;;9.47;nan
15662;BME280;7931;52.274;10.470;2022-09-28T17:00:49;98834.72;;;9.44;nan
15662;BME280;7931;52.274;10.470;2022-09-28T17:03:17;98839.88;;;9.45;nan
15662;BME280;7931;52.274;10.470;2022-09-28T17:05:43;98841.53;;;9.46;nan
15662;BME280;7931;52.274;10.470;2022-09-28T17:08:13;98847.28;;;9.42;nan
15662;BME280;7931;52.274;10.470;2022-09-28T17:10:54;98840.03;;;9.44;nan
15662;BME280;7931;52.274;10.470;2022-09-28T17:13:21;98847.00;;;9.45;nan
15662;BME280;7931;52.274;10.470;2022-09-28T17:15:47;98856.78;;;9.44;nan
15662;BME280;7931;52.274;10.470;2022-09-28T17:18:15;98852.47;;;9.43;nan
15662;BME280;7931;52.274;10.470;2022-09-28T17:20:43;98852.31;;;9.45;nan
15662;BME280;7931;52.274;10.470;2022-09-28T17:23:09;98852.16;;;9.46;nan
15662;BME280;7931;52.274;10.470;2022-09-28T17:25:35;98847.94;;;9.53;nan
15662;BME280;7931;52.274;10.470;2022-09-28T17:28:00;98854.53;;;9.49;nan
15662;BME280;7931;52.274;10.470;2022-09-28T17:30:26;98858.16;;;9.48;nan
15662;BME280;7931;52.274;10.470;2022-09-28T17:32:51;98865.16;;;9.49;nan
15662;BME280;7931;52.274;10.470;2022-09-28T17:35:17;98865.16;;;9.49;nan
15662;BME280;7931;52.274;10.470;2022-09-28T17:37:43;98861.78;;;9.47;nan
15662;BME280;7931;52.274;10.470;2022-09-28T17:40:23;98874.94;;;9.49;nan
15662;BME280;7931;52.274;10.470;2022-09-28T17:42:50;98872.41;;;9.47;nan
15662;BME280;7931;52.274;10.470;2022-09-28T17:45:19;98879.41;;;9.48;nan
15662;BME280;7931;52.274;10.470;2022-09-28T17:47:44;98883.72;;;9.49;nan
15662;BME280;7931;52.274;10.470;2022-09-28T17:50:19;98886.38;;;9.49;nan
15662;BME280;7931;52.274;10.470;2022-09-28T17:52:46;98882.34;;;9.45;nan
15662;BME280;7931;52.274;10.470;2022-09-28T17:55:16;98885.16;;;9.44;nan
15662;BME280;7931;52.274;10.470;2022-09-28T17:57:42;98887.53;;;9.37;nan
15662;BME280;7931;52.274;10.470;2022-09-28T18:00:08;98891.06;;;9.28;nan
15662;BME280;7931;52.274;10.470;2022-09-28T18:02:33;98885.38;;;9.23;nan
15662;BME280;7931;52.274;10.470;2022-09-28T18:04:59;98892.53;;;9.13;nan
15662;BME280;7931;52.274;10.470;2022-09-28T18:07:24;98887.78;;;9.07;nan
15662;BME280;7931;52.274;10.470;2022-09-28T18:09:52;98890.44;;;9.07;nan
15662;BME280;7931;52.274;10.470;2022-09-28T18:12:20;98899.69;;;9.02;nan
15662;BME280;7931;52.274;10.470;2022-09-28T18:14:46;98909.31;;;9.04;nan
15662;BME280;7931;52.274;10.470;2022-09-28T18:17:11;98899.69;;;9.02;nan
15662;BME280;7931;52.274;10.470;2022-09-28T18:19:36;98905.53;;;9.06;nan
15662;BME280;7931;52.274;10.470;2022-09-28T18:22:01;98902.47;;;9.11;nan
15662;BME280;7931;52.274;10.470;2022-09-28T18:24:27;98899.09;;;9.09;nan
15662;BME280;7931;52.274;10.470;2022-09-28T18:26:52;98909.72;;;9.09;nan
15662;BME280;7931;52.274;10.470;2022-09-28T18:29:17;98907.75;;;9.11;nan
15662;BME280;7931;52.274;10.470;2022-09-28T18:31:42;98912.09;;;9.12;nan
15662;BME280;7931;52.274;10.470;2022-09-28T18:34:08;98916.41;;;9.13;nan
15662;BME280;7931;52.274;10.470;2022-09-28T18:36:34;98913.63;;;9.14;nan
15662;BME280;7931;52.274;10.470;2022-09-28T18:39:00;98913.06;;;9.11;nan
15662;BME280;7931;52.274;10.470;2022-09-28T18:41:26;98916.72;;;9.10;nan
15662;BME280;7931;52.274;10.470;2022-09-28T18:43:52;98920.06;;;9.12;nan
15662;BME280;7931;52.274;10.470;2022-09-28T18:46:24;98921.03;;;9.11;nan
15662;BME280;7931;52.274;10.470;2022-09-28T18:48:51;98920.31;;;9.09;nan
15662;BME280;7931;52.274;10.470;2022-09-28T18:51:16;98925.94;;;9.06;nan
15662;BME280;7931;52.274;10.470;2022-09-28T18:53:41;98920.06;;;9.02;nan
15662;BME280;7931;52.274;10.470;2022-09-28T18:56:12;98920.22;;;9.00;nan
15662;BME280;7931;52.274;10.470;2022-09-28T18:58:39;98926.50;;;8.99;nan
15662;BME280;7931;52.274;10.470;2022-09-28T19:01:16;98928.19;;;9.00;nan
15662;BME280;7931;52.274;10.470;2022-09-28T19:03:42;98937.53;;;9.05;nan
15662;BME280;7931;52.274;10.470;2022-09-28T19:06:09;98927.03;;;9.03;nan
15662;BME280;7931;52.274;10.470;2022-09-28T19:08:35;98930.41;;;9.05;nan
15662;BME280;7931;52.274;10.470;2022-09-28T19:11:09;98931.25;;;9.06;nan
15662;BME280;7931;52.274;10.470;2022-09-28T19:13:35;98935.56;;;9.07;nan
15662;BME280;7931;52.274;10.470;2022-09-28T19:16:09;98933.19;;;9.04;nan
15662;BME280;7931;52.274;10.470;2022-09-28T19:18:35;98939.31;;;9.04;nan
15662;BME280;7931;52.274;10.470;2022-09-28T19:21:05;98941.31;;;9.02;nan
15662;BME280;7931;52.274;10.470;2022-09-28T19:23:32;98937.97;;;9.00;nan
15662;BME280;7931;52.274;10.470;2022-09-28T19:26:01;98934.31;;;9.01;nan
15662;BME280;7931;52.274;10.470;2022-09-28T19:28:28;98936.25;;;8.99;nan
15662;BME280;7931;52.274;10.470;2022-09-28T19:31:01;98931.81;;;8.99;nan
15662;BME280;7931;52.274;10.470;2022-09-28T19:33:27;98935.00;;;9.03;nan
15662;BME280;7931;52.274;10.470;2022-09-28T19:35:56;98940.03;;;9.06;nan
15662;BME280;7931;52.274;10.470;2022-09-28T19:38:22;98942.41;;;9.09;nan
15662;BME280;7931;52.274;10.470;2022-09-28T19:40:47;98942.53;;;9.08;nan
15662;BME280;7931;52.274;10.470;2022-09-28T19:43:13;98945.19;;;9.08;nan
15662;BME280;7931;52.274;10.470;2022-09-28T19:45:39;98945.91;;;9.10;nan
15662;BME280;7931;52.274;10.470;2022-09-28T19:48:04;98942.84;;;9.05;nan
15662;BME280;7931;52.274;10.470;2022-09-28T19:50:29;98942.97;;;9.03;nan
15662;BME280;7931;52.274;10.470;2022-09-28T19:52:56;98951.09;;;9.01;nan
15662;BME280;7931;52.274;10.470;2022-09-28T19:55:26;98948.28;;;9.03;nan
15662;BME280;7931;52.274;10.470;2022-09-28T19:57:55;98954.41;;;9.04;nan
15662;BME280;7931;52.274;10.470;2022-09-28T20:00:21;98952.91;;;9.01;nan
15662;BME280;7931;52.274;10.470;2022-09-28T20:02:46;98946.19;;;8.97;nan
15662;BME280;7931;52.274;10.470;2022-09-28T20:05:11;98955.56;;;8.91;nan
15662;BME280;7931;52.274;10.470;2022-09-28T20:07:37;98953.91;;;8.90;nan
15662;BME280;7931;52.274;10.470;2022-09-28T20:10:04;98961.16;;;8.88;nan
15662;BME280;7931;52.274;10.470;2022-09-28T20:12:29;98957.50;;;8.89;nan
15662;BME280;7931;52.274;10.470;2022-09-28T20:14:55;98962.94;;;8.97;nan
15662;BME280;7931;52.274;10.470;2022-09-28T20:17:20;98959.63;;;8.95;nan
15662;BME280;7931;52.274;10.470;2022-09-28T20:19:45;98966.88;;;8.93;nan
15662;BME280;7931;52.274;10.470;2022-09-28T20:22:12;98960.16;;;8.89;nan
15662;BME280;7931;52.274;10.470;2022-09-28T20:24:37;98969.25;;;8.96;nan
15662;BME280;7931;52.274;10.470;2022-09-28T20:27:02;98959.47;;;8.97;nan
15662;BME280;7931;52.274;10.470;2022-09-28T20:29:28;98973.41;;;8.99;nan
15662;BME280;7931;52.274;10.470;2022-09-28T20:31:55;98979.28;;;9.02;nan
15662;BME280;7931;52.274;10.470;2022-09-28T20:34:20;98972.59;;;8.98;nan
15662;BME280;7931;52.274;10.470;2022-09-28T20:36:45;98986.84;;;8.97;nan
15662;BME280;7931;52.274;10.470;2022-09-28T20:39:11;98978.72;;;8.99;nan
15662;BME280;7931;52.274;10.470;2022-09-28T20:41:37;98981.38;;;8.99;nan
15662;BME280;7931;52.274;10.470;2022-09-28T20:44:03;98982.25;;;8.99;nan
15662;BME280;7931;52.274;10.470;2022-09-28T20:46:29;98983.19;;;8.98;nan
15662;BME280;7931;52.274;10.470;2022-09-28T20:48:54;98985.03;;;8.88;nan
15662;BME280;7931;52.274;10.470;2022-09-28T20:51:22;98982.09;;;8.91;nan
15662;BME280;7931;52.274;10.470;2022-09-28T20:53:52;98983.50;;;8.95;nan
15662;BME280;7931;52.274;10.470;2022-09-28T20:56:20;98985.31;;;8.95;nan
15662;BME280;7931;52.274;10.470;2022-09-28T20:58:46;98991.47;;;8.95;nan
15662;BME280;7931;52.274;10.470;2022-09-28T21:01:19;98989.91;;;8.93;nan
15662;BME280;7931;52.274;10.470;2022-09-28T21:03:51;98988.25;;;8.92;nan
15662;BME280;7931;52.274;10.470;2022-09-28T21:06:19;98992.97;;;8.88;nan
15662;BME280;7931;52.274;10.470;2022-09-28T21:08:45;98996.78;;;8.86;nan
15662;BME280;7931;52.274;10.470;2022-09-28T21:11:12;98992.97;;;8.88;nan
15662;BME280;7931;52.274;10.470;2022-09-28T21:13:39;98992.97;;;8.88;nan
15662;BME280;7931;52.274;10.470;2022-09-28T21:16:09;98995.78;;;8.87;nan
15662;BME280;7931;52.274;10.470;2022-09-28T21:18:35;99000.25;;;8.86;nan
15662;BME280;7931;52.274;10.470;2022-09-28T21:21:00;99003.47;;;8.90;nan
15662;BME280;7931;52.274;10.470;2022-09-28T21:23:25;99009.03;;;8.87;nan
15662;BME280;7931;52.274;10.470;2022-09-28T21:26:02;99013.22;;;8.89;nan
15662;BME280;7931;52.274;10.470;2022-09-28T21:28:27;99011.84;;;8.85;nan
15662;BME280;7931;52.274;10.470;2022-09-28T21:30:52;99011.56;;;8.88;nan
15662;BME280;7931;52.274;10.470;2022-09-28T21:33:18;99011.69;;;8.87;nan
15662;BME280;7931;52.274;10.470;2022-09-28T21:35:43;99009.72;;;8.79;nan
15662;BME280;7931;52.274;10.470;2022-09-28T21:38:08;99013.78;;;8.83;nan
15662;BME280;7931;52.274;10.470;2022-09-28T21:40:33;99008.06;;;8.78;nan
15662;BME280;7931;52.274;10.470;2022-09-28T21:42:59;99006.41;;;8.77;nan
15662;BME280;7931;52.274;10.470;2022-09-28T21:45:24;99012.53;;;8.78;nan
15662;BME280;7931;52.274;10.470;2022-09-28T21:47:50;99013.38;;;8.78;nan
15662;BME280;7931;52.274;10.470;2022-09-28T21:50:21;99010.88;;;8.77;nan
15662;BME280;7931;52.274;10.470;2022-09-28T21:52:48;99013.63;;;8.75;nan
15662;BME280;7931;52.274;10.470;2022-09-28T21:55:13;99017.00;;;8.77;nan
15662;BME280;7931;52.274;10.470;2022-09-28T21:57:38;99014.19;;;8.79;nan
15662;BME280;7931;52.274;10.470;2022-09-28T22:00:04;99014.78;;;8.72;nan
15662;BME280;7931;52.274;10.470;2022-09-28T22:02:31;99026.06;;;8.74;nan
15662;BME280;7931;52.274;10.470;2022-09-28T22:04:57;99013.22;;;8.70;nan
15662;BME280;7931;52.274;10.470;2022-09-28T22:07:23;99018.66;;;8.68;nan
15662;BME280;7931;52.274;10.470;2022-09-28T22:09:48;99019.81;;;8.66;nan
15662;BME280;7931;52.274;10.470;2022-09-28T22:12:14;99026.47;;;8.70;nan
15662;BME280;7931;52.274;10.470;2022-09-28T22:14:40;99022.88;;;8.71;nan
15662;BME280;7931;52.274;10.470;2022-09-28T22:17:05;99013.94;;;8.72;nan
15662;BME280;7931;52.274;10.470;2022-09-28T22:19:30;99024.13;;;8.67;nan
15662;BME280;7931;52.274;10.470;2022-09-28T22:21:56;99022.44;;;8.66;nan
15662;BME280;7931;52.274;10.470;2022-09-28T22:24:21;99021.72;;;8.64;nan
15662;BME280;7931;52.274;10.470;2022-09-28T22:26:46;99024.94;;;8.58;nan
15662;BME280;7931;52.274;10.470;2022-09-28T22:29:11;99026.19;;;8.54;nan
15662;BME280;7931;52.274;10.470;2022-09-28T22:31:39;99029.09;;;8.50;nan
15662;BME280;7931;52.274;10.470;2022-09-28T22:34:05;99028.69;;;8.45;nan
15662;BME280;7931;52.274;10.470;2022-09-28T22:36:31;99022.94;;;8.40;nan
15662;BME280;7931;52.274;10.470;2022-09-28T22:38:57;99029.50;;;8.36;nan
15662;BME280;7931;52.274;10.470;2022-09-28T22:41:23;99027.50;;;8.29;nan
15662;BME280;7931;52.274;10.470;2022-09-28T22:43:50;99036.94;;;8.21;nan
15662;BME280;7931;52.274;10.470;2022-09-28T22:46:18;99039.50;;;8.23;nan
15662;BME280;7931;52.274;10.470;2022-09-28T22:48:51;99038.88;;;8.10;nan
15662;BME280;7931;52.274;10.470;2022-09-28T22:51:17;99041.78;;;8.07;nan
15662;BME280;7931;52.274;10.470;2022-09-28T22:53:43;99040.25;;;8.04;nan
15662;BME280;7931;52.274;10.470;2022-09-28T22:56:08;99039.97;;;8.07;nan
15662;BME280;7931;52.274;10.470;2022-09-28T22:58:35;99043.50;;;8.08;nan
15662;BME280;7931;52.274;10.470;2022-09-28T23:01:24;99040.84;;;8.08;nan
15662;BME280;7931;52.274;10.470;2022-09-28T23:03:51;99044.00;;;8.02;nan
15662;BME280;7931;52.274;10.470;2022-09-28T23:06:18;99036.00;;;7.92;nan
15662;BME280;7931;52.274;10.470;2022-09-28T23:08:45;99044.91;;;7.81;nan
15662;BME280;7931;52.274;10.470;2022-09-28T23:11:11;99041.94;;;7.75;nan
15662;BME280;7931;52.274;10.470;2022-09-28T23:13:36;99042.34;;;7.70;nan
15662;BME280;7931;52.274;10.470;2022-09-28T23:16:04;99034.78;;;7.65;nan
15662;BME280;7931;52.274;10.470;2022-09-28T23:18:32;99032.00;;;7.67;nan
15662;BME280;7931;52.274;10.470;2022-09-28T23:21:00;99032.84;;;7.67;nan
15662;BME280;7931;52.274;10.470;2022-09-28T23:23:25;99034.50;;;7.68;nan
15662;BME280;7931;52.274;10.470;2022-09-28T23:25:51;99035.22;;;7.70;nan
15662;BME280;7931;52.274;10.470;2022-09-28T23:28:18;99035.09;;;7.72;nan
15662;BME280;7931;52.274;10.470;2022-09-28T23:30:44;99040.91;;;7.66;nan
15662;BME280;7931;52.274;10.470;2022-09-28T23:33:13;99042.84;;;7.64;nan
15662;BME280;7931;52.274;10.470;2022-09-28T23:35:39;99036.47;;;7.66;nan
15662;BME280;7931;52.274;10.470;2022-09-28T23:38:05;99036.84;;;7.62;nan
15662;BME280;7931;52.274;10.470;2022-09-28T23:40:31;99037.97;;;7.59;nan
15662;BME280;7931;52.274;10.470;2022-09-28T23:42:56;99038.66;;;7.61;nan
15662;BME280;7931;52.274;10.470;2022-09-28T23:45:21;99042.28;;;7.60;nan
15662;BME280;7931;52.274;10.470;2022-09-28T23:47:46;99038.66;;;7.61;nan
15662;BME280;7931;52.274;10.470;2022-09-28T23:50:13;99040.91;;;7.66;nan
15662;BME280;7931;52.274;10.470;2022-09-28T23:52:38;99047.06;;;7.66;nan
15662;BME280;7931;52.274;10.470;2022-09-28T23:55:04;99054.03;;;7.67;nan
15662;BME280;7931;52.274;10.470;2022-09-28T23:57:29;99044.53;;;7.65;nan
15662;BME280;7931;52.274;10.470;2022-09-28T23:59:54;99045.78;;;7.61;nan
